New Franken, Wisconsin
Current Conditions -  °F | °C
As of 11:53 PM on Saturday 25 Oct 2014 (Local Time) from KGRB Reporting Station
Clear Clear  
Wind Chill: 43°   Ceiling: Unl
Heat Index: 48°   Visibility: 10mi
Dew Point: 29°   Wind: 10mph
Humidity: 48%   Direction: 280°W
Pressure: 29.93"   Gusts: NA
Location:  44.53°N, 87.83°W
Report Text: KGRB 260453Z AUTO 28009KT 10SM CLR 09/M02 A2993 RMK AO2 SLP135 T00891017
Loading
Personal Weather Stations






























Interactive Weather Map New forecast layout! Learn more

10-Day Weather Forecast

Advertisements
Track Severe Weather on mobile